sensor_id;sensor_type;location;lat;lon;timestamp;temperature;humidity
75010;DHT22;63564;46.840;18.336;2023-11-19T00:01:02;2.15;84.70
75010;DHT22;63564;46.840;18.336;2023-11-19T00:04:05;2.29;82.92
75010;DHT22;63564;46.840;18.336;2023-11-19T00:07:06;2.32;82.78
75010;DHT22;63564;46.840;18.336;2023-11-19T00:10:12;2.22;83.38
75010;DHT22;63564;46.840;18.336;2023-11-19T00:13:12;2.19;83.97
75010;DHT22;63564;46.840;18.336;2023-11-19T00:16:13;2.21;84.63
75010;DHT22;63564;46.840;18.336;2023-11-19T00:19:13;2.19;84.59
75010;DHT22;63564;46.840;18.336;2023-11-19T00:22:13;2.11;85.64
75010;DHT22;63564;46.840;18.336;2023-11-19T00:25:14;1.97;86.10
75010;DHT22;63564;46.840;18.336;2023-11-19T00:28:15;1.80;87.24
75010;DHT22;63564;46.840;18.336;2023-11-19T00:31:16;1.71;87.92
75010;DHT22;63564;46.840;18.336;2023-11-19T00:34:17;1.70;87.46
75010;DHT22;63564;46.840;18.336;2023-11-19T00:37:21;1.70;86.73
75010;DHT22;63564;46.840;18.336;2023-11-19T00:40:21;1.80;86.65
75010;DHT22;63564;46.840;18.336;2023-11-19T00:43:23;1.43;87.70
75010;DHT22;63564;46.840;18.336;2023-11-19T00:46:23;0.94;90.14
75010;DHT22;63564;46.840;18.336;2023-11-19T00:49:24;1.44;88.06
75010;DHT22;63564;46.840;18.336;2023-11-19T00:52:24;1.59;87.51
75010;DHT22;63564;46.840;18.336;2023-11-19T00:55:24;1.56;87.65
75010;DHT22;63564;46.840;18.336;2023-11-19T00:58:25;1.53;87.93
75010;DHT22;63564;46.840;18.336;2023-11-19T01:01:25;1.70;86.98
75010;DHT22;63564;46.840;18.336;2023-11-19T01:04:26;1.39;88.06
75010;DHT22;63564;46.840;18.336;2023-11-19T01:07:26;1.47;88.08
75010;DHT22;63564;46.840;18.336;2023-11-19T01:10:27;1.60;87.88
75010;DHT22;63564;46.840;18.336;2023-11-19T01:13:28;1.47;89.60
75010;DHT22;63564;46.840;18.336;2023-11-19T01:16:29;0.91;92.81
75010;DHT22;63564;46.840;18.336;2023-11-19T01:19:30;0.81;93.03
75010;DHT22;63564;46.840;18.336;2023-11-19T01:22:30;0.68;93.33
75010;DHT22;63564;46.840;18.336;2023-11-19T01:25:30;0.70;92.88
75010;DHT22;63564;46.840;18.336;2023-11-19T01:28:31;0.89;91.97
75010;DHT22;63564;46.840;18.336;2023-11-19T01:31:31;0.78;92.06
75010;DHT22;63564;46.840;18.336;2023-11-19T01:34:34;0.61;92.21
75010;DHT22;63564;46.840;18.336;2023-11-19T01:37:35;0.46;93.50
75010;DHT22;63564;46.840;18.336;2023-11-19T01:40:36;0.73;92.76
75010;DHT22;63564;46.840;18.336;2023-11-19T01:43:38;0.98;91.46
75010;DHT22;63564;46.840;18.336;2023-11-19T01:46:43;0.35;93.05
75010;DHT22;63564;46.840;18.336;2023-11-19T01:49:44;0.68;92.55
75010;DHT22;63564;46.840;18.336;2023-11-19T01:52:44;0.95;90.99
75010;DHT22;63564;46.840;18.336;2023-11-19T01:55:48;0.81;91.50
75010;DHT22;63564;46.840;18.336;2023-11-19T01:58:49;0.88;92.43
75010;DHT22;63564;46.840;18.336;2023-11-19T02:01:50;1.26;90.81
75010;DHT22;63564;46.840;18.336;2023-11-19T02:04:52;1.32;90.26
75010;DHT22;63564;46.840;18.336;2023-11-19T02:07:53;1.19;91.60
75010;DHT22;63564;46.840;18.336;2023-11-19T02:10:53;1.40;90.26
75010;DHT22;63564;46.840;18.336;2023-11-19T02:13:57;1.54;89.45
75010;DHT22;63564;46.840;18.336;2023-11-19T02:16:57;1.53;90.27
75010;DHT22;63564;46.840;18.336;2023-11-19T02:19:58;1.68;89.65
75010;DHT22;63564;46.840;18.336;2023-11-19T02:22:58;1.73;89.30
75010;DHT22;63564;46.840;18.336;2023-11-19T02:26:02;1.98;87.43
75010;DHT22;63564;46.840;18.336;2023-11-19T02:29:03;1.80;88.90
75010;DHT22;63564;46.840;18.336;2023-11-19T02:32:04;1.77;89.17
75010;DHT22;63564;46.840;18.336;2023-11-19T02:35:05;1.57;90.24
75010;DHT22;63564;46.840;18.336;2023-11-19T02:38:05;1.68;89.14
75010;DHT22;63564;46.840;18.336;2023-11-19T02:41:07;1.54;89.61
75010;DHT22;63564;46.840;18.336;2023-11-19T02:44:07;1.63;89.20
75010;DHT22;63564;46.840;18.336;2023-11-19T02:47:08;1.66;89.16
75010;DHT22;63564;46.840;18.336;2023-11-19T02:50:09;1.89;87.92
75010;DHT22;63564;46.840;18.336;2023-11-19T02:53:24;2.08;86.32
75010;DHT22;63564;46.840;18.336;2023-11-19T02:56:27;1.91;87.18
75010;DHT22;63564;46.840;18.336;2023-11-19T02:59:29;1.53;89.17
75010;DHT22;63564;46.840;18.336;2023-11-19T03:02:40;1.44;89.69
75010;DHT22;63564;46.840;18.336;2023-11-19T03:05:45;1.06;91.29
75010;DHT22;63564;46.840;18.336;2023-11-19T03:08:46;1.03;90.23
75010;DHT22;63564;46.840;18.336;2023-11-19T03:11:48;0.80;90.73
75010;DHT22;63564;46.840;18.336;2023-11-19T03:14:48;0.98;89.88
75010;DHT22;63564;46.840;18.336;2023-11-19T03:17:50;1.09;89.39
75010;DHT22;63564;46.840;18.336;2023-11-19T03:20:51;1.12;89.21
75010;DHT22;63564;46.840;18.336;2023-11-19T03:23:52;0.75;90.85
75010;DHT22;63564;46.840;18.336;2023-11-19T03:26:52;0.78;90.47
75010;DHT22;63564;46.840;18.336;2023-11-19T03:29:53;0.99;89.67
75010;DHT22;63564;46.840;18.336;2023-11-19T03:32:54;0.67;90.82
75010;DHT22;63564;46.840;18.336;2023-11-19T03:35:58;0.61;92.18
75010;DHT22;63564;46.840;18.336;2023-11-19T03:38:59;0.84;89.99
75010;DHT22;63564;46.840;18.336;2023-11-19T03:41:59;0.78;90.73
75010;DHT22;63564;46.840;18.336;2023-11-19T03:45:00;0.88;90.16
75010;DHT22;63564;46.840;18.336;2023-11-19T03:48:00;1.05;89.30
75010;DHT22;63564;46.840;18.336;2023-11-19T03:51:00;1.09;88.71
75010;DHT22;63564;46.840;18.336;2023-11-19T03:54:01;1.16;89.07
75010;DHT22;63564;46.840;18.336;2023-11-19T03:57:01;1.30;88.32
75010;DHT22;63564;46.840;18.336;2023-11-19T04:00:04;1.19;88.37
75010;DHT22;63564;46.840;18.336;2023-11-19T04:03:13;1.06;88.95
75010;DHT22;63564;46.840;18.336;2023-11-19T04:06:14;1.05;89.04
75010;DHT22;63564;46.840;18.336;2023-11-19T04:09:14;0.95;89.90
75010;DHT22;63564;46.840;18.336;2023-11-19T04:12:15;0.92;90.01
75010;DHT22;63564;46.840;18.336;2023-11-19T04:15:15;1.03;89.17
75010;DHT22;63564;46.840;18.336;2023-11-19T04:18:16;1.08;88.48
75010;DHT22;63564;46.840;18.336;2023-11-19T04:21:16;0.98;89.30
75010;DHT22;63564;46.840;18.336;2023-11-19T04:24:16;0.42;91.56
75010;DHT22;63564;46.840;18.336;2023-11-19T04:27:17;0.36;92.32
75010;DHT22;63564;46.840;18.336;2023-11-19T04:30:18;0.50;92.10
75010;DHT22;63564;46.840;18.336;2023-11-19T04:33:18;0.37;92.14
75010;DHT22;63564;46.840;18.336;2023-11-19T04:36:19;0.33;92.54
75010;DHT22;63564;46.840;18.336;2023-11-19T04:39:20;-0.03;94.10
75010;DHT22;63564;46.840;18.336;2023-11-19T04:42:24;0.16;93.30
75010;DHT22;63564;46.840;18.336;2023-11-19T04:45:25;0.44;92.52
75010;DHT22;63564;46.840;18.336;2023-11-19T04:48:25;0.44;91.60
75010;DHT22;63564;46.840;18.336;2023-11-19T04:51:26;0.36;92.98
75010;DHT22;63564;46.840;18.336;2023-11-19T04:54:26;0.57;92.15
75010;DHT22;63564;46.840;18.336;2023-11-19T04:57:26;0.47;93.13
75010;DHT22;63564;46.840;18.336;2023-11-19T05:00:27;0.58;92.22
75010;DHT22;63564;46.840;18.336;2023-11-19T05:03:27;0.64;92.00
75010;DHT22;63564;46.840;18.336;2023-11-19T05:06:29;0.78;92.25
75010;DHT22;63564;46.840;18.336;2023-11-19T05:09:31;0.73;92.84
75010;DHT22;63564;46.840;18.336;2023-11-19T05:12:31;0.53;93.70
75010;DHT22;63564;46.840;18.336;2023-11-19T05:15:32;0.50;93.41
75010;DHT22;63564;46.840;18.336;2023-11-19T05:18:33;0.65;93.68
75010;DHT22;63564;46.840;18.336;2023-11-19T05:21:33;0.74;92.97
75010;DHT22;63564;46.840;18.336;2023-11-19T05:24:34;0.83;93.31
75010;DHT22;63564;46.840;18.336;2023-11-19T05:27:36;1.09;92.28
75010;DHT22;63564;46.840;18.336;2023-11-19T05:30:37;1.16;90.31
75010;DHT22;63564;46.840;18.336;2023-11-19T05:33:37;1.32;89.28
75010;DHT22;63564;46.840;18.336;2023-11-19T05:36:37;1.33;89.07
75010;DHT22;63564;46.840;18.336;2023-11-19T05:39:39;1.33;89.34
75010;DHT22;63564;46.840;18.336;2023-11-19T05:42:43;1.30;88.95
75010;DHT22;63564;46.840;18.336;2023-11-19T05:45:43;1.30;89.58
75010;DHT22;63564;46.840;18.336;2023-11-19T05:48:43;1.35;89.64
75010;DHT22;63564;46.840;18.336;2023-11-19T05:51:45;1.44;88.72
75010;DHT22;63564;46.840;18.336;2023-11-19T05:54:46;1.29;89.23
75010;DHT22;63564;46.840;18.336;2023-11-19T05:57:51;1.26;89.36
75010;DHT22;63564;46.840;18.336;2023-11-19T06:00:52;1.35;89.14
75010;DHT22;63564;46.840;18.336;2023-11-19T06:03:52;1.43;89.54
75010;DHT22;63564;46.840;18.336;2023-11-19T06:06:53;1.35;93.34
75010;DHT22;63564;46.840;18.336;2023-11-19T06:09:55;1.32;91.17
75010;DHT22;63564;46.840;18.336;2023-11-19T06:12:55;1.38;90.97
75010;DHT22;63564;46.840;18.336;2023-11-19T06:15:57;1.49;90.62
75010;DHT22;63564;46.840;18.336;2023-11-19T06:18:57;1.25;90.07
75010;DHT22;63564;46.840;18.336;2023-11-19T06:21:58;1.28;90.38
75010;DHT22;63564;46.840;18.336;2023-11-19T06:24:58;1.47;88.73
75010;DHT22;63564;46.840;18.336;2023-11-19T06:28:00;1.51;89.20
75010;DHT22;63564;46.840;18.336;2023-11-19T06:31:00;1.61;90.00
75010;DHT22;63564;46.840;18.336;2023-11-19T06:34:01;1.71;89.09
75010;DHT22;63564;46.840;18.336;2023-11-19T06:37:01;1.91;88.42
75010;DHT22;63564;46.840;18.336;2023-11-19T06:40:05;2.16;87.06
75010;DHT22;63564;46.840;18.336;2023-11-19T06:43:05;2.07;87.28
75010;DHT22;63564;46.840;18.336;2023-11-19T06:46:15;1.97;87.62
75010;DHT22;63564;46.840;18.336;2023-11-19T06:49:15;2.35;86.27
75010;DHT22;63564;46.840;18.336;2023-11-19T06:52:16;2.54;86.09
75010;DHT22;63564;46.840;18.336;2023-11-19T06:55:17;2.19;86.83
75010;DHT22;63564;46.840;18.336;2023-11-19T06:58:17;2.52;84.95
75010;DHT22;63564;46.840;18.336;2023-11-19T07:01:18;2.54;85.25
75010;DHT22;63564;46.840;18.336;2023-11-19T07:04:18;2.49;84.89
75010;DHT22;63564;46.840;18.336;2023-11-19T07:07:19;2.63;84.25
75010;DHT22;63564;46.840;18.336;2023-11-19T07:10:20;2.64;85.29
75010;DHT22;63564;46.840;18.336;2023-11-19T07:13:20;2.77;84.36
75010;DHT22;63564;46.840;18.336;2023-11-19T07:16:21;2.60;84.86
75010;DHT22;63564;46.840;18.336;2023-11-19T07:19:21;2.52;85.11
75010;DHT22;63564;46.840;18.336;2023-11-19T07:22:22;2.57;85.96
75010;DHT22;63564;46.840;18.336;2023-11-19T07:25:22;2.52;85.40
75010;DHT22;63564;46.840;18.336;2023-11-19T07:28:23;2.73;84.68
75010;DHT22;63564;46.840;18.336;2023-11-19T07:31:24;2.81;85.07
75010;DHT22;63564;46.840;18.336;2023-11-19T07:34:25;2.77;84.06
75010;DHT22;63564;46.840;18.336;2023-11-19T07:37:25;2.80;83.77
75010;DHT22;63564;46.840;18.336;2023-11-19T07:40:26;2.70;84.86
75010;DHT22;63564;46.840;18.336;2023-11-19T07:43:26;2.87;84.12
75010;DHT22;63564;46.840;18.336;2023-11-19T07:46:27;2.90;84.30
75010;DHT22;63564;46.840;18.336;2023-11-19T07:49:27;3.00;84.02
75010;DHT22;63564;46.840;18.336;2023-11-19T07:52:28;3.08;83.95
75010;DHT22;63564;46.840;18.336;2023-11-19T07:55:29;3.31;82.88
75010;DHT22;63564;46.840;18.336;2023-11-19T07:58:29;3.15;83.67
75010;DHT22;63564;46.840;18.336;2023-11-19T08:01:30;3.22;84.14
75010;DHT22;63564;46.840;18.336;2023-11-19T08:04:30;3.53;83.56
75010;DHT22;63564;46.840;18.336;2023-11-19T08:07:30;3.39;83.92
75010;DHT22;63564;46.840;18.336;2023-11-19T08:10:31;3.46;83.78
75010;DHT22;63564;46.840;18.336;2023-11-19T08:13:33;3.44;83.58
75010;DHT22;63564;46.840;18.336;2023-11-19T08:16:33;3.35;84.17
75010;DHT22;63564;46.840;18.336;2023-11-19T08:19:34;3.33;84.30
75010;DHT22;63564;46.840;18.336;2023-11-19T08:22:34;3.26;84.44
75010;DHT22;63564;46.840;18.336;2023-11-19T08:25:34;3.28;84.78
75010;DHT22;63564;46.840;18.336;2023-11-19T08:28:35;3.56;83.64
75010;DHT22;63564;46.840;18.336;2023-11-19T08:31:35;3.56;83.81
75010;DHT22;63564;46.840;18.336;2023-11-19T08:34:36;3.55;83.22
75010;DHT22;63564;46.840;18.336;2023-11-19T08:37:36;3.66;83.14
75010;DHT22;63564;46.840;18.336;2023-11-19T08:40:37;3.42;84.29
75010;DHT22;63564;46.840;18.336;2023-11-19T08:43:38;3.76;82.76
75010;DHT22;63564;46.840;18.336;2023-11-19T08:46:45;3.77;82.64
75010;DHT22;63564;46.840;18.336;2023-11-19T08:49:46;3.88;82.84
75010;DHT22;63564;46.840;18.336;2023-11-19T08:52:46;3.86;83.43
75010;DHT22;63564;46.840;18.336;2023-11-19T08:55:46;4.12;83.08
75010;DHT22;63564;46.840;18.336;2023-11-19T08:58:47;4.29;81.73
75010;DHT22;63564;46.840;18.336;2023-11-19T09:01:47;4.19;82.15
75010;DHT22;63564;46.840;18.336;2023-11-19T09:04:48;4.08;81.48
75010;DHT22;63564;46.840;18.336;2023-11-19T09:07:48;4.21;81.80
75010;DHT22;63564;46.840;18.336;2023-11-19T09:10:49;4.16;82.22
75010;DHT22;63564;46.840;18.336;2023-11-19T09:13:50;4.41;81.84
75010;DHT22;63564;46.840;18.336;2023-11-19T09:16:50;4.53;80.46
75010;DHT22;63564;46.840;18.336;2023-11-19T09:19:50;4.74;80.25
75010;DHT22;63564;46.840;18.336;2023-11-19T09:22:51;4.80;79.71
75010;DHT22;63564;46.840;18.336;2023-11-19T09:25:52;4.66;79.83
75010;DHT22;63564;46.840;18.336;2023-11-19T09:28:52;4.87;78.44
75010;DHT22;63564;46.840;18.336;2023-11-19T09:31:52;4.97;77.62
75010;DHT22;63564;46.840;18.336;2023-11-19T09:34:53;5.14;75.70
75010;DHT22;63564;46.840;18.336;2023-11-19T09:37:53;5.21;76.03
75010;DHT22;63564;46.840;18.336;2023-11-19T09:40:53;5.04;78.21
75010;DHT22;63564;46.840;18.336;2023-11-19T09:43:54;5.27;76.05
75010;DHT22;63564;46.840;18.336;2023-11-19T09:46:55;5.27;75.91
75010;DHT22;63564;46.840;18.336;2023-11-19T09:49:56;4.85;77.29
75010;DHT22;63564;46.840;18.336;2023-11-19T09:52:56;5.32;75.55
75010;DHT22;63564;46.840;18.336;2023-11-19T09:55:59;5.53;73.91
75010;DHT22;63564;46.840;18.336;2023-11-19T09:59:00;5.52;74.95
75010;DHT22;63564;46.840;18.336;2023-11-19T10:02:02;5.59;74.57
75010;DHT22;63564;46.840;18.336;2023-11-19T10:05:07;5.56;76.24
75010;DHT22;63564;46.840;18.336;2023-11-19T10:08:07;5.74;74.86
75010;DHT22;63564;46.840;18.336;2023-11-19T10:11:14;5.96;72.44
75010;DHT22;63564;46.840;18.336;2023-11-19T10:14:16;5.62;73.48
75010;DHT22;63564;46.840;18.336;2023-11-19T10:17:19;6.04;73.01
75010;DHT22;63564;46.840;18.336;2023-11-19T10:20:19;6.35;72.44
75010;DHT22;63564;46.840;18.336;2023-11-19T10:23:20;6.52;71.46
75010;DHT22;63564;46.840;18.336;2023-11-19T10:26:20;6.48;71.85
75010;DHT22;63564;46.840;18.336;2023-11-19T10:29:23;6.65;70.06
75010;DHT22;63564;46.840;18.336;2023-11-19T10:32:23;6.65;70.69
75010;DHT22;63564;46.840;18.336;2023-11-19T10:35:24;6.53;69.65
75010;DHT22;63564;46.840;18.336;2023-11-19T10:38:25;6.56;70.43
75010;DHT22;63564;46.840;18.336;2023-11-19T10:41:32;6.52;69.52
75010;DHT22;63564;46.840;18.336;2023-11-19T10:44:33;6.57;68.10
75010;DHT22;63564;46.840;18.336;2023-11-19T10:47:37;6.94;67.44
75010;DHT22;63564;46.840;18.336;2023-11-19T10:50:41;6.57;69.79
75010;DHT22;63564;46.840;18.336;2023-11-19T10:53:43;6.66;69.23
75010;DHT22;63564;46.840;18.336;2023-11-19T10:56:44;6.91;68.33
75010;DHT22;63564;46.840;18.336;2023-11-19T10:59:46;7.04;68.57
75010;DHT22;63564;46.840;18.336;2023-11-19T11:02:50;7.10;67.25
75010;DHT22;63564;46.840;18.336;2023-11-19T11:05:54;6.77;69.19
75010;DHT22;63564;46.840;18.336;2023-11-19T11:08:55;6.84;69.15
75010;DHT22;63564;46.840;18.336;2023-11-19T11:11:56;6.72;70.70
75010;DHT22;63564;46.840;18.336;2023-11-19T11:14:58;6.87;70.25
75010;DHT22;63564;46.840;18.336;2023-11-19T11:18:02;7.11;70.24
75010;DHT22;63564;46.840;18.336;2023-11-19T11:21:08;7.00;69.55
75010;DHT22;63564;46.840;18.336;2023-11-19T11:37:18;7.28;68.70
75010;DHT22;63564;46.840;18.336;2023-11-19T11:40:18;7.18;69.61
75010;DHT22;63564;46.840;18.336;2023-11-19T11:43:44;7.47;68.84
75010;DHT22;63564;46.840;18.336;2023-11-19T11:46:55;7.42;68.23
75010;DHT22;63564;46.840;18.336;2023-11-19T11:49:56;7.39;69.22
75010;DHT22;63564;46.840;18.336;2023-11-19T11:55:58;7.68;67.54
75010;DHT22;63564;46.840;18.336;2023-11-19T11:58:59;7.83;66.97
75010;DHT22;63564;46.840;18.336;2023-11-19T12:02:00;7.65;66.21
75010;DHT22;63564;46.840;18.336;2023-11-19T12:05:00;7.36;67.14
75010;DHT22;63564;46.840;18.336;2023-11-19T12:08:05;7.59;67.04
75010;DHT22;63564;46.840;18.336;2023-11-19T12:11:10;7.91;66.12
75010;DHT22;63564;46.840;18.336;2023-11-19T12:14:11;8.07;65.52
75010;DHT22;63564;46.840;18.336;2023-11-19T12:20:34;7.76;66.49
75010;DHT22;63564;46.840;18.336;2023-11-19T12:23:45;8.06;65.61
75010;DHT22;63564;46.840;18.336;2023-11-19T12:26:46;7.91;65.91
75010;DHT22;63564;46.840;18.336;2023-11-19T12:29:50;8.17;63.98
75010;DHT22;63564;46.840;18.336;2023-11-19T12:32:51;8.35;64.90
75010;DHT22;63564;46.840;18.336;2023-11-19T12:35:53;8.46;64.07
75010;DHT22;63564;46.840;18.336;2023-11-19T12:38:53;8.37;64.34
75010;DHT22;63564;46.840;18.336;2023-11-19T12:41:54;8.59;63.57
75010;DHT22;63564;46.840;18.336;2023-11-19T12:44:55;8.55;63.38
75010;DHT22;63564;46.840;18.336;2023-11-19T12:48:05;8.49;64.74
75010;DHT22;63564;46.840;18.336;2023-11-19T12:51:05;9.11;63.00
75010;DHT22;63564;46.840;18.336;2023-11-19T12:54:07;8.68;63.83
75010;DHT22;63564;46.840;18.336;2023-11-19T12:57:08;8.76;63.48
75010;DHT22;63564;46.840;18.336;2023-11-19T13:00:19;8.55;64.67
75010;DHT22;63564;46.840;18.336;2023-11-19T13:03:32;8.41;64.43
75010;DHT22;63564;46.840;18.336;2023-11-19T13:06:33;8.54;63.81
75010;DHT22;63564;46.840;18.336;2023-11-19T13:09:33;8.42;64.35
75010;DHT22;63564;46.840;18.336;2023-11-19T13:12:34;8.34;65.84
75010;DHT22;63564;46.840;18.336;2023-11-19T13:15:35;8.30;64.89
75010;DHT22;63564;46.840;18.336;2023-11-19T13:18:35;8.42;64.99
75010;DHT22;63564;46.840;18.336;2023-11-19T13:21:36;8.13;65.57
75010;DHT22;63564;46.840;18.336;2023-11-19T13:24:38;8.38;65.52
75010;DHT22;63564;46.840;18.336;2023-11-19T13:27:40;8.62;65.09
75010;DHT22;63564;46.840;18.336;2023-11-19T13:30:40;8.27;68.21
75010;DHT22;63564;46.840;18.336;2023-11-19T13:33:41;8.46;65.83
75010;DHT22;63564;46.840;18.336;2023-11-19T13:36:41;8.65;65.00
75010;DHT22;63564;46.840;18.336;2023-11-19T13:39:42;8.48;65.49
75010;DHT22;63564;46.840;18.336;2023-11-19T13:42:43;8.63;66.00
75010;DHT22;63564;46.840;18.336;2023-11-19T13:45:43;8.80;64.86
75010;DHT22;63564;46.840;18.336;2023-11-19T13:48:44;8.69;65.27
75010;DHT22;63564;46.840;18.336;2023-11-19T13:51:45;8.68;65.58
75010;DHT22;63564;46.840;18.336;2023-11-19T13:54:45;8.33;65.50
75010;DHT22;63564;46.840;18.336;2023-11-19T13:57:46;8.72;63.41
75010;DHT22;63564;46.840;18.336;2023-11-19T14:00:48;8.65;63.21
75010;DHT22;63564;46.840;18.336;2023-11-19T14:03:49;8.72;64.02
75010;DHT22;63564;46.840;18.336;2023-11-19T14:06:49;8.42;64.41
75010;DHT22;63564;46.840;18.336;2023-11-19T14:09:49;8.66;63.83
75010;DHT22;63564;46.840;18.336;2023-11-19T14:12:50;8.65;64.24
75010;DHT22;63564;46.840;18.336;2023-11-19T14:15:50;8.69;63.51
75010;DHT22;63564;46.840;18.336;2023-11-19T14:18:51;8.31;65.05
75010;DHT22;63564;46.840;18.336;2023-11-19T14:21:51;8.44;64.40
75010;DHT22;63564;46.840;18.336;2023-11-19T14:24:51;8.27;64.73
75010;DHT22;63564;46.840;18.336;2023-11-19T14:27:52;8.17;65.77
75010;DHT22;63564;46.840;18.336;2023-11-19T14:30:52;8.15;65.19
75010;DHT22;63564;46.840;18.336;2023-11-19T14:33:56;8.30;65.26
75010;DHT22;63564;46.840;18.336;2023-11-19T14:36:57;8.34;65.18
75010;DHT22;63564;46.840;18.336;2023-11-19T14:39:59;8.25;66.01
75010;DHT22;63564;46.840;18.336;2023-11-19T14:42:59;8.38;65.65
75010;DHT22;63564;46.840;18.336;2023-11-19T14:46:00;8.27;67.11
75010;DHT22;63564;46.840;18.336;2023-11-19T14:49:03;8.14;66.67
75010;DHT22;63564;46.840;18.336;2023-11-19T14:52:07;8.20;67.00
75010;DHT22;63564;46.840;18.336;2023-11-19T14:55:08;8.38;66.70
75010;DHT22;63564;46.840;18.336;2023-11-19T14:58:09;8.14;67.53
75010;DHT22;63564;46.840;18.336;2023-11-19T15:01:14;8.25;67.61
75010;DHT22;63564;46.840;18.336;2023-11-19T15:04:14;8.17;67.63
75010;DHT22;63564;46.840;18.336;2023-11-19T15:07:16;8.31;69.30
75010;DHT22;63564;46.840;18.336;2023-11-19T15:10:16;8.03;68.28
75010;DHT22;63564;46.840;18.336;2023-11-19T15:13:16;7.79;68.06
75010;DHT22;63564;46.840;18.336;2023-11-19T15:16:17;7.75;68.65
75010;DHT22;63564;46.840;18.336;2023-11-19T15:19:24;8.00;68.86
75010;DHT22;63564;46.840;18.336;2023-11-19T15:22:25;8.03;67.94
75010;DHT22;63564;46.840;18.336;2023-11-19T15:25:25;7.73;69.43
75010;DHT22;63564;46.840;18.336;2023-11-19T15:28:25;7.48;70.88
75010;DHT22;63564;46.840;18.336;2023-11-19T15:31:26;7.73;70.21
75010;DHT22;63564;46.840;18.336;2023-11-19T15:34:26;7.58;71.22
75010;DHT22;63564;46.840;18.336;2023-11-19T15:37:26;7.39;71.61
75010;DHT22;63564;46.840;18.336;2023-11-19T15:40:27;7.59;70.90
75010;DHT22;63564;46.840;18.336;2023-11-19T15:43:28;7.55;71.29
75010;DHT22;63564;46.840;18.336;2023-11-19T15:46:29;7.22;71.67
75010;DHT22;63564;46.840;18.336;2023-11-19T15:49:29;7.38;71.02
75010;DHT22;63564;46.840;18.336;2023-11-19T15:52:30;6.91;72.98
75010;DHT22;63564;46.840;18.336;2023-11-19T15:55:31;7.00;72.91
75010;DHT22;63564;46.840;18.336;2023-11-19T15:58:32;7.14;72.35
75010;DHT22;63564;46.840;18.336;2023-11-19T16:01:33;7.20;71.50
75010;DHT22;63564;46.840;18.336;2023-11-19T16:04:33;7.08;73.88
75010;DHT22;63564;46.840;18.336;2023-11-19T16:07:34;7.10;72.82
75010;DHT22;63564;46.840;18.336;2023-11-19T16:10:36;7.20;71.25
75010;DHT22;63564;46.840;18.336;2023-11-19T16:13:39;7.21;70.86
75010;DHT22;63564;46.840;18.336;2023-11-19T16:16:40;7.25;71.25
75010;DHT22;63564;46.840;18.336;2023-11-19T16:19:40;7.15;70.96
75010;DHT22;63564;46.840;18.336;2023-11-19T16:22:42;7.21;71.06
75010;DHT22;63564;46.840;18.336;2023-11-19T16:25:43;7.07;74.02
75010;DHT22;63564;46.840;18.336;2023-11-19T16:28:43;7.05;72.12
75010;DHT22;63564;46.840;18.336;2023-11-19T16:31:44;7.11;71.68
75010;DHT22;63564;46.840;18.336;2023-11-19T16:34:44;7.11;71.92
75010;DHT22;63564;46.840;18.336;2023-11-19T16:37:48;7.10;72.52
75010;DHT22;63564;46.840;18.336;2023-11-19T16:40:48;7.04;73.82
75010;DHT22;63564;46.840;18.336;2023-11-19T16:43:50;7.08;72.83
75010;DHT22;63564;46.840;18.336;2023-11-19T16:46:52;7.08;72.67
75010;DHT22;63564;46.840;18.336;2023-11-19T16:49:53;6.91;73.85
75010;DHT22;63564;46.840;18.336;2023-11-19T16:52:54;6.86;74.33
75010;DHT22;63564;46.840;18.336;2023-11-19T16:55:55;6.72;74.85
75010;DHT22;63564;46.840;18.336;2023-11-19T16:58:55;6.84;75.07
75010;DHT22;63564;46.840;18.336;2023-11-19T17:01:56;6.82;75.39
75010;DHT22;63564;46.840;18.336;2023-11-19T17:04:56;6.52;76.72
75010;DHT22;63564;46.840;18.336;2023-11-19T17:07:56;6.15;79.34
75010;DHT22;63564;46.840;18.336;2023-11-19T17:10:57;6.52;77.11
75010;DHT22;63564;46.840;18.336;2023-11-19T17:13:57;6.56;76.70
75010;DHT22;63564;46.840;18.336;2023-11-19T17:16:58;6.65;75.29
75010;DHT22;63564;46.840;18.336;2023-11-19T17:19:58;6.57;75.73
75010;DHT22;63564;46.840;18.336;2023-11-19T17:22:59;6.59;76.04
75010;DHT22;63564;46.840;18.336;2023-11-19T17:26:00;6.83;76.01
75010;DHT22;63564;46.840;18.336;2023-11-19T17:29:01;6.68;75.88
75010;DHT22;63564;46.840;18.336;2023-11-19T17:32:02;6.76;75.06
75010;DHT22;63564;46.840;18.336;2023-11-19T17:35:02;6.79;74.96
75010;DHT22;63564;46.840;18.336;2023-11-19T17:38:03;6.63;76.37
75010;DHT22;63564;46.840;18.336;2023-11-19T17:41:04;6.32;80.20
75010;DHT22;63564;46.840;18.336;2023-11-19T17:44:05;6.13;80.92
75010;DHT22;63564;46.840;18.336;2023-11-19T17:47:05;6.13;80.50
75010;DHT22;63564;46.840;18.336;2023-11-19T17:50:06;6.11;81.14
75010;DHT22;63564;46.840;18.336;2023-11-19T17:53:06;6.01;80.23
75010;DHT22;63564;46.840;18.336;2023-11-19T17:56:07;6.10;80.92
75010;DHT22;63564;46.840;18.336;2023-11-19T17:59:07;6.14;79.93
75010;DHT22;63564;46.840;18.336;2023-11-19T18:02:08;5.96;81.24
75010;DHT22;63564;46.840;18.336;2023-11-19T18:05:08;5.97;82.28
75010;DHT22;63564;46.840;18.336;2023-11-19T18:08:09;5.76;81.78
75010;DHT22;63564;46.840;18.336;2023-11-19T18:11:12;5.81;81.36
75010;DHT22;63564;46.840;18.336;2023-11-19T18:14:13;5.83;81.02
75010;DHT22;63564;46.840;18.336;2023-11-19T18:17:14;5.85;80.72
75010;DHT22;63564;46.840;18.336;2023-11-19T18:20:16;5.73;81.70
75010;DHT22;63564;46.840;18.336;2023-11-19T18:23:17;5.60;82.51
75010;DHT22;63564;46.840;18.336;2023-11-19T18:26:18;5.83;80.97
75010;DHT22;63564;46.840;18.336;2023-11-19T18:29:18;5.85;81.34
75010;DHT22;63564;46.840;18.336;2023-11-19T18:32:19;5.96;80.26
75010;DHT22;63564;46.840;18.336;2023-11-19T18:35:21;6.03;80.26
75010;DHT22;63564;46.840;18.336;2023-11-19T18:38:24;6.01;80.36
75010;DHT22;63564;46.840;18.336;2023-11-19T18:41:25;6.00;80.10
75010;DHT22;63564;46.840;18.336;2023-11-19T18:44:28;6.01;80.70
75010;DHT22;63564;46.840;18.336;2023-11-19T18:47:30;6.04;81.12
75010;DHT22;63564;46.840;18.336;2023-11-19T18:50:33;5.81;81.94
75010;DHT22;63564;46.840;18.336;2023-11-19T18:53:35;5.74;81.50
75010;DHT22;63564;46.840;18.336;2023-11-19T18:56:37;5.31;83.90
75010;DHT22;63564;46.840;18.336;2023-11-19T18:59:38;5.43;82.29
75010;DHT22;63564;46.840;18.336;2023-11-19T19:02:39;5.25;83.80
75010;DHT22;63564;46.840;18.336;2023-11-19T19:05:41;5.22;83.98
75010;DHT22;63564;46.840;18.336;2023-11-19T19:08:43;5.14;85.35
75010;DHT22;63564;46.840;18.336;2023-11-19T19:11:46;5.08;85.16
75010;DHT22;63564;46.840;18.336;2023-11-19T19:14:48;5.04;85.02
75010;DHT22;63564;46.840;18.336;2023-11-19T19:17:50;5.17;85.00
75010;DHT22;63564;46.840;18.336;2023-11-19T19:20:51;5.38;83.18
75010;DHT22;63564;46.840;18.336;2023-11-19T19:23:52;5.63;81.10